sensor_id;sensor_type;location;lat;lon;timestamp;P1;durP1;ratioP1;P2;durP2;ratioP2
13061;SDS011;6597;52.218;9.882;2024-03-02T00:00:29;25.57;;;13.17;;
13061;SDS011;6597;52.218;9.882;2024-03-02T00:02:57;18.63;;;12.33;;
13061;SDS011;6597;52.218;9.882;2024-03-02T00:05:24;22.80;;;12.90;;
13061;SDS011;6597;52.218;9.882;2024-03-02T00:07:52;20.90;;;13.43;;
13061;SDS011;6597;52.218;9.882;2024-03-02T00:10:22;20.43;;;12.03;;
13061;SDS011;6597;52.218;9.882;2024-03-02T00:12:50;22.73;;;13.63;;
13061;SDS011;6597;52.218;9.882;2024-03-02T00:15:26;23.23;;;13.97;;
13061;SDS011;6597;52.218;9.882;2024-03-02T00:18:08;23.67;;;13.47;;
13061;SDS011;6597;52.218;9.882;2024-03-02T00:20:36;20.57;;;12.60;;
13061;SDS011;6597;52.218;9.882;2024-03-02T00:23:03;22.57;;;13.07;;
13061;SDS011;6597;52.218;9.882;2024-03-02T00:25:35;21.03;;;13.50;;
13061;SDS011;6597;52.218;9.882;2024-03-02T00:28:05;20.87;;;13.57;;
13061;SDS011;6597;52.218;9.882;2024-03-02T00:33:23;21.50;;;13.10;;
13061;SDS011;6597;52.218;9.882;2024-03-02T00:35:53;23.23;;;14.07;;
13061;SDS011;6597;52.218;9.882;2024-03-02T00:38:20;25.37;;;14.27;;
13061;SDS011;6597;52.218;9.882;2024-03-02T00:40:47;29.43;;;14.67;;
13061;SDS011;6597;52.218;9.882;2024-03-02T00:43:21;20.80;;;13.93;;
13061;SDS011;6597;52.218;9.882;2024-03-02T00:46:05;25.10;;;15.00;;
13061;SDS011;6597;52.218;9.882;2024-03-02T00:48:34;20.70;;;13.77;;
13061;SDS011;6597;52.218;9.882;2024-03-02T00:51:01;24.57;;;15.20;;
13061;SDS011;6597;52.218;9.882;2024-03-02T00:53:28;24.63;;;14.87;;
13061;SDS011;6597;52.218;9.882;2024-03-02T00:55:57;21.87;;;14.47;;
13061;SDS011;6597;52.218;9.882;2024-03-02T00:58:24;23.97;;;14.53;;
13061;SDS011;6597;52.218;9.882;2024-03-02T01:00:50;30.50;;;15.30;;
13061;SDS011;6597;52.218;9.882;2024-03-02T01:03:17;24.07;;;14.67;;
13061;SDS011;6597;52.218;9.882;2024-03-02T01:05:45;22.80;;;14.87;;
13061;SDS011;6597;52.218;9.882;2024-03-02T01:08:12;24.43;;;15.47;;
13061;SDS011;6597;52.218;9.882;2024-03-02T01:10:39;26.00;;;14.53;;
13061;SDS011;6597;52.218;9.882;2024-03-02T01:13:05;23.07;;;15.00;;
13061;SDS011;6597;52.218;9.882;2024-03-02T01:15:32;24.17;;;15.00;;
13061;SDS011;6597;52.218;9.882;2024-03-02T01:17:59;26.97;;;15.10;;
13061;SDS011;6597;52.218;9.882;2024-03-02T01:20:26;30.90;;;15.57;;
13061;SDS011;6597;52.218;9.882;2024-03-02T01:22:54;24.83;;;14.60;;
13061;SDS011;6597;52.218;9.882;2024-03-02T01:25:21;26.47;;;15.53;;
13061;SDS011;6597;52.218;9.882;2024-03-02T01:27:48;24.03;;;15.10;;
13061;SDS011;6597;52.218;9.882;2024-03-02T01:30:14;26.40;;;15.17;;
13061;SDS011;6597;52.218;9.882;2024-03-02T01:32:41;29.50;;;14.20;;
13061;SDS011;6597;52.218;9.882;2024-03-02T01:35:07;30.60;;;15.20;;
13061;SDS011;6597;52.218;9.882;2024-03-02T01:37:34;25.27;;;15.37;;
13061;SDS011;6597;52.218;9.882;2024-03-02T01:40:02;26.77;;;15.57;;
13061;SDS011;6597;52.218;9.882;2024-03-02T01:42:33;27.40;;;15.50;;
13061;SDS011;6597;52.218;9.882;2024-03-02T01:45:00;22.90;;;14.33;;
13061;SDS011;6597;52.218;9.882;2024-03-02T01:47:27;21.30;;;14.13;;
13061;SDS011;6597;52.218;9.882;2024-03-02T01:49:53;26.50;;;15.80;;
13061;SDS011;6597;52.218;9.882;2024-03-02T01:52:20;24.97;;;14.80;;
13061;SDS011;6597;52.218;9.882;2024-03-02T01:54:46;26.10;;;15.57;;
13061;SDS011;6597;52.218;9.882;2024-03-02T01:57:14;27.00;;;14.87;;
13061;SDS011;6597;52.218;9.882;2024-03-02T01:59:41;24.23;;;14.73;;
13061;SDS011;6597;52.218;9.882;2024-03-02T02:02:08;27.73;;;14.63;;
13061;SDS011;6597;52.218;9.882;2024-03-02T02:04:34;23.63;;;14.00;;
13061;SDS011;6597;52.218;9.882;2024-03-02T02:07:01;20.30;;;13.60;;
13061;SDS011;6597;52.218;9.882;2024-03-02T02:09:28;23.30;;;14.37;;
13061;SDS011;6597;52.218;9.882;2024-03-02T02:11:54;26.70;;;15.27;;
13061;SDS011;6597;52.218;9.882;2024-03-02T02:14:22;27.30;;;15.47;;
13061;SDS011;6597;52.218;9.882;2024-03-02T02:16:49;25.37;;;15.10;;
13061;SDS011;6597;52.218;9.882;2024-03-02T02:19:15;28.50;;;15.07;;
13061;SDS011;6597;52.218;9.882;2024-03-02T02:21:44;23.10;;;15.13;;
13061;SDS011;6597;52.218;9.882;2024-03-02T02:24:11;24.17;;;15.00;;
13061;SDS011;6597;52.218;9.882;2024-03-02T02:26:38;24.40;;;14.83;;
13061;SDS011;6597;52.218;9.882;2024-03-02T02:29:05;21.57;;;14.27;;
13061;SDS011;6597;52.218;9.882;2024-03-02T02:31:36;26.67;;;14.47;;
13061;SDS011;6597;52.218;9.882;2024-03-02T02:34:03;25.37;;;14.67;;
13061;SDS011;6597;52.218;9.882;2024-03-02T02:36:30;26.00;;;14.87;;
13061;SDS011;6597;52.218;9.882;2024-03-02T02:38:58;27.37;;;14.97;;
13061;SDS011;6597;52.218;9.882;2024-03-02T02:41:29;25.60;;;15.33;;
13061;SDS011;6597;52.218;9.882;2024-03-02T02:43:56;23.60;;;15.07;;
13061;SDS011;6597;52.218;9.882;2024-03-02T02:46:22;24.77;;;15.50;;
13061;SDS011;6597;52.218;9.882;2024-03-02T02:48:49;26.03;;;15.70;;
13061;SDS011;6597;52.218;9.882;2024-03-02T02:51:16;22.83;;;14.57;;
13061;SDS011;6597;52.218;9.882;2024-03-02T02:53:43;22.73;;;15.13;;
13061;SDS011;6597;52.218;9.882;2024-03-02T02:56:11;22.90;;;15.37;;
13061;SDS011;6597;52.218;9.882;2024-03-02T02:58:37;29.00;;;16.20;;
13061;SDS011;6597;52.218;9.882;2024-03-02T03:01:06;26.23;;;15.73;;
13061;SDS011;6597;52.218;9.882;2024-03-02T03:03:32;27.87;;;15.33;;
13061;SDS011;6597;52.218;9.882;2024-03-02T03:05:59;24.93;;;15.47;;
13061;SDS011;6597;52.218;9.882;2024-03-02T03:08:25;25.10;;;14.87;;
13061;SDS011;6597;52.218;9.882;2024-03-02T03:10:52;25.93;;;14.77;;
13061;SDS011;6597;52.218;9.882;2024-03-02T03:13:20;25.83;;;15.17;;
13061;SDS011;6597;52.218;9.882;2024-03-02T03:15:46;25.87;;;14.97;;
13061;SDS011;6597;52.218;9.882;2024-03-02T03:18:13;24.23;;;15.13;;
13061;SDS011;6597;52.218;9.882;2024-03-02T03:20:40;25.13;;;15.93;;
13061;SDS011;6597;52.218;9.882;2024-03-02T03:23:06;21.93;;;14.57;;
13061;SDS011;6597;52.218;9.882;2024-03-02T03:25:33;22.40;;;14.40;;
13061;SDS011;6597;52.218;9.882;2024-03-02T03:28:00;25.23;;;14.73;;
13061;SDS011;6597;52.218;9.882;2024-03-02T03:30:29;26.67;;;14.77;;
13061;SDS011;6597;52.218;9.882;2024-03-02T03:32:56;22.00;;;13.77;;
13061;SDS011;6597;52.218;9.882;2024-03-02T03:35:22;26.23;;;15.83;;
13061;SDS011;6597;52.218;9.882;2024-03-02T03:37:49;23.23;;;13.43;;
13061;SDS011;6597;52.218;9.882;2024-03-02T03:40:15;20.97;;;12.87;;
13061;SDS011;6597;52.218;9.882;2024-03-02T03:42:43;22.60;;;13.13;;
13061;SDS011;6597;52.218;9.882;2024-03-02T03:45:09;21.73;;;13.40;;
13061;SDS011;6597;52.218;9.882;2024-03-02T03:47:36;19.00;;;13.10;;
13061;SDS011;6597;52.218;9.882;2024-03-02T03:50:03;25.20;;;12.77;;
13061;SDS011;6597;52.218;9.882;2024-03-02T03:52:32;21.73;;;12.40;;
13061;SDS011;6597;52.218;9.882;2024-03-02T03:54:58;21.40;;;13.23;;
13061;SDS011;6597;52.218;9.882;2024-03-02T03:57:25;19.47;;;12.43;;
13061;SDS011;6597;52.218;9.882;2024-03-02T03:59:52;21.77;;;12.40;;
13061;SDS011;6597;52.218;9.882;2024-03-02T04:02:18;21.63;;;13.33;;
13061;SDS011;6597;52.218;9.882;2024-03-02T04:04:46;20.07;;;12.17;;
13061;SDS011;6597;52.218;9.882;2024-03-02T04:07:13;27.63;;;14.07;;
13061;SDS011;6597;52.218;9.882;2024-03-02T04:09:39;22.17;;;13.00;;
13061;SDS011;6597;52.218;9.882;2024-03-02T04:12:06;20.63;;;12.53;;
13061;SDS011;6597;52.218;9.882;2024-03-02T04:14:33;24.33;;;13.90;;
13061;SDS011;6597;52.218;9.882;2024-03-02T04:16:59;25.30;;;13.43;;
13061;SDS011;6597;52.218;9.882;2024-03-02T04:19:26;21.90;;;14.20;;
13061;SDS011;6597;52.218;9.882;2024-03-02T04:21:54;22.30;;;13.73;;
13061;SDS011;6597;52.218;9.882;2024-03-02T04:24:20;22.00;;;13.90;;
13061;SDS011;6597;52.218;9.882;2024-03-02T04:26:47;27.90;;;14.30;;
13061;SDS011;6597;52.218;9.882;2024-03-02T04:29:13;24.47;;;14.67;;
13061;SDS011;6597;52.218;9.882;2024-03-02T04:31:40;23.33;;;14.40;;
13061;SDS011;6597;52.218;9.882;2024-03-02T04:34:06;24.10;;;13.80;;
13061;SDS011;6597;52.218;9.882;2024-03-02T04:36:33;23.03;;;13.50;;
13061;SDS011;6597;52.218;9.882;2024-03-02T04:39:01;27.43;;;15.53;;
13061;SDS011;6597;52.218;9.882;2024-03-02T04:41:27;22.13;;;13.67;;
13061;SDS011;6597;52.218;9.882;2024-03-02T04:43:54;26.70;;;14.53;;
13061;SDS011;6597;52.218;9.882;2024-03-02T04:46:20;24.87;;;14.80;;
13061;SDS011;6597;52.218;9.882;2024-03-02T04:48:47;31.10;;;15.77;;
13061;SDS011;6597;52.218;9.882;2024-03-02T04:51:20;25.63;;;14.53;;
13061;SDS011;6597;52.218;9.882;2024-03-02T04:53:46;30.37;;;16.30;;
13061;SDS011;6597;52.218;9.882;2024-03-02T04:56:14;30.27;;;16.57;;
13061;SDS011;6597;52.218;9.882;2024-03-02T04:58:55;30.53;;;15.80;;
13061;SDS011;6597;52.218;9.882;2024-03-02T05:01:21;27.47;;;15.87;;
13061;SDS011;6597;52.218;9.882;2024-03-02T05:03:48;31.43;;;18.67;;
13061;SDS011;6597;52.218;9.882;2024-03-02T05:06:14;34.53;;;17.67;;
13061;SDS011;6597;52.218;9.882;2024-03-02T05:08:41;33.77;;;17.03;;
13061;SDS011;6597;52.218;9.882;2024-03-02T05:11:09;28.20;;;16.93;;
13061;SDS011;6597;52.218;9.882;2024-03-02T05:13:55;28.60;;;16.90;;
13061;SDS011;6597;52.218;9.882;2024-03-02T05:16:21;28.73;;;16.57;;
13061;SDS011;6597;52.218;9.882;2024-03-02T05:18:48;30.30;;;16.57;;
13061;SDS011;6597;52.218;9.882;2024-03-02T05:21:14;26.83;;;16.97;;
13061;SDS011;6597;52.218;9.882;2024-03-02T05:23:41;27.43;;;15.80;;
13061;SDS011;6597;52.218;9.882;2024-03-02T05:26:07;32.13;;;17.13;;
13061;SDS011;6597;52.218;9.882;2024-03-02T05:28:36;29.37;;;18.13;;
13061;SDS011;6597;52.218;9.882;2024-03-02T05:31:04;32.57;;;17.07;;
13061;SDS011;6597;52.218;9.882;2024-03-02T05:33:30;33.07;;;17.53;;
13061;SDS011;6597;52.218;9.882;2024-03-02T05:35:58;31.20;;;17.50;;
13061;SDS011;6597;52.218;9.882;2024-03-02T05:38:25;33.93;;;18.20;;
13061;SDS011;6597;52.218;9.882;2024-03-02T05:40:51;33.50;;;17.70;;
13061;SDS011;6597;52.218;9.882;2024-03-02T05:43:18;31.13;;;17.23;;
13061;SDS011;6597;52.218;9.882;2024-03-02T05:45:45;35.90;;;18.20;;
13061;SDS011;6597;52.218;9.882;2024-03-02T05:48:13;35.10;;;18.77;;
13061;SDS011;6597;52.218;9.882;2024-03-02T05:50:39;34.07;;;18.43;;
13061;SDS011;6597;52.218;9.882;2024-03-02T05:53:06;37.43;;;18.13;;
13061;SDS011;6597;52.218;9.882;2024-03-02T05:55:33;27.40;;;16.40;;
13061;SDS011;6597;52.218;9.882;2024-03-02T05:57:59;33.37;;;17.43;;
13061;SDS011;6597;52.218;9.882;2024-03-02T06:00:36;34.40;;;17.83;;
13061;SDS011;6597;52.218;9.882;2024-03-02T06:03:03;34.40;;;18.63;;
13061;SDS011;6597;52.218;9.882;2024-03-02T06:05:32;32.73;;;17.73;;
13061;SDS011;6597;52.218;9.882;2024-03-02T06:07:59;32.53;;;17.03;;
13061;SDS011;6597;52.218;9.882;2024-03-02T06:10:25;31.83;;;18.60;;
13061;SDS011;6597;52.218;9.882;2024-03-02T06:12:52;34.53;;;18.07;;
13061;SDS011;6597;52.218;9.882;2024-03-02T06:15:18;32.20;;;17.90;;
13061;SDS011;6597;52.218;9.882;2024-03-02T06:17:44;29.17;;;17.80;;
13061;SDS011;6597;52.218;9.882;2024-03-02T06:20:10;37.10;;;18.27;;
13061;SDS011;6597;52.218;9.882;2024-03-02T06:22:38;28.00;;;17.37;;
13061;SDS011;6597;52.218;9.882;2024-03-02T06:25:05;32.57;;;17.03;;
13061;SDS011;6597;52.218;9.882;2024-03-02T06:27:32;35.30;;;17.87;;
13061;SDS011;6597;52.218;9.882;2024-03-02T06:29:58;33.93;;;17.40;;
13061;SDS011;6597;52.218;9.882;2024-03-02T06:32:25;32.57;;;16.20;;
13061;SDS011;6597;52.218;9.882;2024-03-02T06:34:52;28.10;;;16.50;;
13061;SDS011;6597;52.218;9.882;2024-03-02T06:37:18;30.03;;;17.10;;
13061;SDS011;6597;52.218;9.882;2024-03-02T06:39:46;30.57;;;17.00;;
13061;SDS011;6597;52.218;9.882;2024-03-02T06:42:13;27.33;;;16.10;;
13061;SDS011;6597;52.218;9.882;2024-03-02T06:44:39;34.47;;;17.20;;
13061;SDS011;6597;52.218;9.882;2024-03-02T06:47:06;40.00;;;18.90;;
13061;SDS011;6597;52.218;9.882;2024-03-02T06:49:32;30.30;;;16.60;;
13061;SDS011;6597;52.218;9.882;2024-03-02T06:52:00;29.53;;;16.50;;
13061;SDS011;6597;52.218;9.882;2024-03-02T06:54:26;30.50;;;16.57;;
13061;SDS011;6597;52.218;9.882;2024-03-02T06:56:54;31.87;;;16.83;;
13061;SDS011;6597;52.218;9.882;2024-03-02T06:59:21;33.40;;;17.23;;
13061;SDS011;6597;52.218;9.882;2024-03-02T07:01:47;28.37;;;16.40;;
13061;SDS011;6597;52.218;9.882;2024-03-02T07:04:14;26.47;;;15.47;;
13061;SDS011;6597;52.218;9.882;2024-03-02T07:06:40;25.10;;;15.47;;
13061;SDS011;6597;52.218;9.882;2024-03-02T07:09:07;30.93;;;16.87;;
13061;SDS011;6597;52.218;9.882;2024-03-02T07:11:36;28.87;;;16.37;;
13061;SDS011;6597;52.218;9.882;2024-03-02T07:14:03;31.23;;;16.87;;
13061;SDS011;6597;52.218;9.882;2024-03-02T07:16:30;27.63;;;16.00;;
13061;SDS011;6597;52.218;9.882;2024-03-02T07:18:58;32.13;;;17.20;;
13061;SDS011;6597;52.218;9.882;2024-03-02T07:21:26;28.03;;;15.93;;
13061;SDS011;6597;52.218;9.882;2024-03-02T07:23:53;29.63;;;16.27;;
13061;SDS011;6597;52.218;9.882;2024-03-02T07:26:20;31.20;;;16.43;;
13061;SDS011;6597;52.218;9.882;2024-03-02T07:28:48;32.40;;;16.37;;
13061;SDS011;6597;52.218;9.882;2024-03-02T07:31:16;26.63;;;15.37;;
13061;SDS011;6597;52.218;9.882;2024-03-02T07:33:43;27.67;;;14.90;;
13061;SDS011;6597;52.218;9.882;2024-03-02T07:36:11;25.03;;;14.30;;
13061;SDS011;6597;52.218;9.882;2024-03-02T07:38:38;27.63;;;16.17;;
13061;SDS011;6597;52.218;9.882;2024-03-02T07:41:05;25.43;;;13.67;;
13061;SDS011;6597;52.218;9.882;2024-03-02T07:43:31;30.13;;;14.90;;
13061;SDS011;6597;52.218;9.882;2024-03-02T07:45:59;28.53;;;14.63;;
13061;SDS011;6597;52.218;9.882;2024-03-02T07:48:27;22.67;;;13.47;;
13061;SDS011;6597;52.218;9.882;2024-03-02T07:50:53;28.47;;;14.43;;
13061;SDS011;6597;52.218;9.882;2024-03-02T07:53:20;27.63;;;13.77;;
13061;SDS011;6597;52.218;9.882;2024-03-02T07:55:46;25.37;;;14.13;;
13061;SDS011;6597;52.218;9.882;2024-03-02T07:58:13;25.60;;;13.50;;
13061;SDS011;6597;52.218;9.882;2024-03-02T08:00:39;24.90;;;14.30;;
13061;SDS011;6597;52.218;9.882;2024-03-02T08:03:06;24.43;;;13.87;;
13061;SDS011;6597;52.218;9.882;2024-03-02T08:05:37;27.20;;;14.07;;
13061;SDS011;6597;52.218;9.882;2024-03-02T08:08:04;24.83;;;12.87;;
13061;SDS011;6597;52.218;9.882;2024-03-02T08:10:31;26.27;;;13.47;;
13061;SDS011;6597;52.218;9.882;2024-03-02T08:12:58;24.83;;;13.33;;
13061;SDS011;6597;52.218;9.882;2024-03-02T08:15:25;25.47;;;13.73;;
13061;SDS011;6597;52.218;9.882;2024-03-02T08:17:51;22.13;;;13.10;;
13061;SDS011;6597;52.218;9.882;2024-03-02T08:20:18;24.30;;;12.83;;
13061;SDS011;6597;52.218;9.882;2024-03-02T08:22:46;28.97;;;14.20;;
13061;SDS011;6597;52.218;9.882;2024-03-02T08:25:13;23.20;;;12.60;;
13061;SDS011;6597;52.218;9.882;2024-03-02T08:27:41;23.50;;;12.33;;
13061;SDS011;6597;52.218;9.882;2024-03-02T08:30:07;24.33;;;13.47;;
13061;SDS011;6597;52.218;9.882;2024-03-02T08:32:35;22.13;;;12.77;;
13061;SDS011;6597;52.218;9.882;2024-03-02T08:35:02;22.50;;;12.17;;
13061;SDS011;6597;52.218;9.882;2024-03-02T08:37:30;24.30;;;13.33;;
13061;SDS011;6597;52.218;9.882;2024-03-02T08:39:57;23.27;;;14.03;;
13061;SDS011;6597;52.218;9.882;2024-03-02T08:42:25;25.30;;;14.43;;
13061;SDS011;6597;52.218;9.882;2024-03-02T08:44:51;22.90;;;13.70;;
13061;SDS011;6597;52.218;9.882;2024-03-02T08:47:18;29.10;;;14.07;;
13061;SDS011;6597;52.218;9.882;2024-03-02T08:49:44;26.70;;;14.17;;
13061;SDS011;6597;52.218;9.882;2024-03-02T08:52:11;26.57;;;14.13;;
13061;SDS011;6597;52.218;9.882;2024-03-02T08:54:38;25.73;;;13.63;;
13061;SDS011;6597;52.218;9.882;2024-03-02T08:57:06;25.50;;;13.17;;
13061;SDS011;6597;52.218;9.882;2024-03-02T08:59:33;27.43;;;13.57;;
13061;SDS011;6597;52.218;9.882;2024-03-02T09:01:59;33.73;;;15.40;;
13061;SDS011;6597;52.218;9.882;2024-03-02T09:04:26;26.90;;;12.97;;
13061;SDS011;6597;52.218;9.882;2024-03-02T09:06:53;21.67;;;12.63;;
13061;SDS011;6597;52.218;9.882;2024-03-02T09:09:20;26.13;;;13.17;;
13061;SDS011;6597;52.218;9.882;2024-03-02T09:11:47;25.37;;;12.97;;
13061;SDS011;6597;52.218;9.882;2024-03-02T09:14:15;23.30;;;11.83;;
13061;SDS011;6597;52.218;9.882;2024-03-02T09:16:41;25.37;;;13.10;;
13061;SDS011;6597;52.218;9.882;2024-03-02T09:19:08;20.10;;;12.63;;
13061;SDS011;6597;52.218;9.882;2024-03-02T09:21:35;20.97;;;11.43;;
13061;SDS011;6597;52.218;9.882;2024-03-02T09:24:02;21.03;;;11.90;;
13061;SDS011;6597;52.218;9.882;2024-03-02T09:26:28;21.87;;;12.30;;
13061;SDS011;6597;52.218;9.882;2024-03-02T09:28:55;23.03;;;12.13;;
13061;SDS011;6597;52.218;9.882;2024-03-02T09:31:23;17.70;;;11.40;;
13061;SDS011;6597;52.218;9.882;2024-03-02T09:33:49;20.23;;;11.30;;
13061;SDS011;6597;52.218;9.882;2024-03-02T09:36:16;19.97;;;11.80;;
13061;SDS011;6597;52.218;9.882;2024-03-02T09:38:44;21.17;;;10.77;;
13061;SDS011;6597;52.218;9.882;2024-03-02T09:41:10;21.73;;;11.77;;
13061;SDS011;6597;52.218;9.882;2024-03-02T09:43:37;19.83;;;11.73;;
13061;SDS011;6597;52.218;9.882;2024-03-02T09:46:04;22.07;;;11.50;;
13061;SDS011;6597;52.218;9.882;2024-03-02T09:48:32;18.33;;;11.17;;
13061;SDS011;6597;52.218;9.882;2024-03-02T09:50:59;22.63;;;12.10;;
13061;SDS011;6597;52.218;9.882;2024-03-02T09:53:28;20.47;;;11.37;;
13061;SDS011;6597;52.218;9.882;2024-03-02T09:55:57;18.23;;;10.90;;
13061;SDS011;6597;52.218;9.882;2024-03-02T09:58:24;17.30;;;10.07;;
13061;SDS011;6597;52.218;9.882;2024-03-02T10:00:51;19.17;;;10.30;;
13061;SDS011;6597;52.218;9.882;2024-03-02T10:03:18;16.60;;;9.27;;
13061;SDS011;6597;52.218;9.882;2024-03-02T10:05:47;16.20;;;9.60;;
13061;SDS011;6597;52.218;9.882;2024-03-02T10:08:14;14.73;;;8.47;;
13061;SDS011;6597;52.218;9.882;2024-03-02T10:10:41;17.33;;;10.30;;
13061;SDS011;6597;52.218;9.882;2024-03-02T10:13:08;18.30;;;10.37;;
13061;SDS011;6597;52.218;9.882;2024-03-02T10:15:37;18.70;;;10.20;;
13061;SDS011;6597;52.218;9.882;2024-03-02T10:18:06;15.93;;;9.60;;
13061;SDS011;6597;52.218;9.882;2024-03-02T10:20:37;18.93;;;9.07;;
13061;SDS011;6597;52.218;9.882;2024-03-02T10:23:11;16.23;;;9.17;;
13061;SDS011;6597;52.218;9.882;2024-03-02T10:25:38;16.20;;;9.10;;
13061;SDS011;6597;52.218;9.882;2024-03-02T10:28:05;16.83;;;9.60;;
13061;SDS011;6597;52.218;9.882;2024-03-02T10:30:32;19.57;;;10.23;;
13061;SDS011;6597;52.218;9.882;2024-03-02T10:32:59;17.50;;;9.40;;
13061;SDS011;6597;52.218;9.882;2024-03-02T10:35:26;18.07;;;9.17;;
13061;SDS011;6597;52.218;9.882;2024-03-02T10:37:53;15.83;;;9.53;;
13061;SDS011;6597;52.218;9.882;2024-03-02T10:40:22;18.13;;;8.67;;
13061;SDS011;6597;52.218;9.882;2024-03-02T10:42:49;17.77;;;9.07;;
13061;SDS011;6597;52.218;9.882;2024-03-02T10:45:17;17.10;;;8.73;;
13061;SDS011;6597;52.218;9.882;2024-03-02T10:47:46;16.77;;;8.60;;
13061;SDS011;6597;52.218;9.882;2024-03-02T10:50:13;12.50;;;7.80;;
13061;SDS011;6597;52.218;9.882;2024-03-02T10:52:39;14.93;;;8.73;;
13061;SDS011;6597;52.218;9.882;2024-03-02T10:55:08;16.73;;;9.03;;
13061;SDS011;6597;52.218;9.882;2024-03-02T10:57:40;15.90;;;9.40;;
13061;SDS011;6597;52.218;9.882;2024-03-02T11:00:10;14.93;;;8.17;;
13061;SDS011;6597;52.218;9.882;2024-03-02T11:02:41;17.00;;;8.60;;
13061;SDS011;6597;52.218;9.882;2024-03-02T11:05:11;13.67;;;8.10;;
13061;SDS011;6597;52.218;9.882;2024-03-02T11:07:43;18.27;;;8.53;;
13061;SDS011;6597;52.218;9.882;2024-03-02T11:10:11;14.20;;;7.60;;
13061;SDS011;6597;52.218;9.882;2024-03-02T11:12:43;23.27;;;8.27;;
13061;SDS011;6597;52.218;9.882;2024-03-02T11:15:18;16.03;;;8.03;;
13061;SDS011;6597;52.218;9.882;2024-03-02T11:17:45;18.17;;;7.57;;
13061;SDS011;6597;52.218;9.882;2024-03-02T11:20:14;26.53;;;8.17;;
13061;SDS011;6597;52.218;9.882;2024-03-02T11:22:42;21.20;;;8.43;;
13061;SDS011;6597;52.218;9.882;2024-03-02T11:25:22;18.77;;;7.97;;
13061;SDS011;6597;52.218;9.882;2024-03-02T11:30:49;20.40;;;8.50;;
13061;SDS011;6597;52.218;9.882;2024-03-02T11:33:26;20.13;;;7.57;;
13061;SDS011;6597;52.218;9.882;2024-03-02T11:35:54;23.77;;;8.70;;
13061;SDS011;6597;52.218;9.882;2024-03-02T11:38:22;25.07;;;8.90;;
13061;SDS011;6597;52.218;9.882;2024-03-02T11:40:50;23.38;;;7.50;;
13061;SDS011;6597;52.218;9.882;2024-03-02T11:43:18;23.48;;;7.63;;
13061;SDS011;6597;52.218;9.882;2024-03-02T11:45:45;22.95;;;7.03;;
13061;SDS011;6597;52.218;9.882;2024-03-02T11:48:13;24.42;;;7.18;;
13061;SDS011;6597;52.218;9.882;2024-03-02T11:50:41;13.52;;;5.82;;
13061;SDS011;6597;52.218;9.882;2024-03-02T11:53:09;18.97;;;6.47;;
13061;SDS011;6597;52.218;9.882;2024-03-02T11:55:37;17.83;;;6.50;;
13061;SDS011;6597;52.218;9.882;2024-03-02T11:58:05;16.77;;;6.67;;
13061;SDS011;6597;52.218;9.882;2024-03-02T12:00:33;12.80;;;5.70;;
13061;SDS011;6597;52.218;9.882;2024-03-02T12:03:00;18.17;;;7.17;;
13061;SDS011;6597;52.218;9.882;2024-03-02T12:05:28;17.63;;;6.10;;
13061;SDS011;6597;52.218;9.882;2024-03-02T12:07:56;19.30;;;6.60;;
13061;SDS011;6597;52.218;9.882;2024-03-02T12:10:23;16.63;;;6.70;;
13061;SDS011;6597;52.218;9.882;2024-03-02T12:12:55;18.27;;;6.53;;
13061;SDS011;6597;52.218;9.882;2024-03-02T12:15:22;18.50;;;6.60;;
13061;SDS011;6597;52.218;9.882;2024-03-02T12:17:53;14.10;;;6.40;;
13061;SDS011;6597;52.218;9.882;2024-03-02T12:20:21;17.00;;;6.70;;
13061;SDS011;6597;52.218;9.882;2024-03-02T12:22:49;18.97;;;7.27;;
13061;SDS011;6597;52.218;9.882;2024-03-02T12:25:17;18.35;;;6.38;;
13061;SDS011;6597;52.218;9.882;2024-03-02T12:27:44;15.18;;;5.65;;
13061;SDS011;6597;52.218;9.882;2024-03-02T12:30:12;14.93;;;6.20;;
13061;SDS011;6597;52.218;9.882;2024-03-02T12:32:39;22.02;;;7.20;;
13061;SDS011;6597;52.218;9.882;2024-03-02T12:35:08;17.33;;;7.10;;
13061;SDS011;6597;52.218;9.882;2024-03-02T12:37:43;19.48;;;7.22;;
13061;SDS011;6597;52.218;9.882;2024-03-02T12:40:10;22.25;;;7.80;;
13061;SDS011;6597;52.218;9.882;2024-03-02T12:42:37;27.60;;;7.00;;
13061;SDS011;6597;52.218;9.882;2024-03-02T12:45:04;17.75;;;5.82;;
13061;SDS011;6597;52.218;9.882;2024-03-02T12:47:32;24.48;;;6.90;;
13061;SDS011;6597;52.218;9.882;2024-03-02T12:49:59;13.95;;;6.32;;
13061;SDS011;6597;52.218;9.882;2024-03-02T12:52:27;20.83;;;6.10;;
13061;SDS011;6597;52.218;9.882;2024-03-02T12:54:54;18.92;;;6.00;;
13061;SDS011;6597;52.218;9.882;2024-03-02T12:57:24;19.42;;;6.10;;
13061;SDS011;6597;52.218;9.882;2024-03-02T12:59:51;28.48;;;7.85;;
13061;SDS011;6597;52.218;9.882;2024-03-02T13:02:18;25.77;;;6.82;;
13061;SDS011;6597;52.218;9.882;2024-03-02T13:04:51;18.00;;;6.72;;
13061;SDS011;6597;52.218;9.882;2024-03-02T13:07:18;18.67;;;6.88;;
13061;SDS011;6597;52.218;9.882;2024-03-02T13:09:48;17.52;;;5.93;;
13061;SDS011;6597;52.218;9.882;2024-03-02T13:12:14;16.42;;;5.30;;
13061;SDS011;6597;52.218;9.882;2024-03-02T13:14:41;17.38;;;5.50;;
13061;SDS011;6597;52.218;9.882;2024-03-02T13:17:08;19.02;;;5.85;;
13061;SDS011;6597;52.218;9.882;2024-03-02T13:19:34;16.90;;;5.10;;
13061;SDS011;6597;52.218;9.882;2024-03-02T13:22:01;16.13;;;4.72;;
13061;SDS011;6597;52.218;9.882;2024-03-02T13:24:28;16.80;;;5.68;;
13061;SDS011;6597;52.218;9.882;2024-03-02T13:26:56;10.73;;;4.20;;
13061;SDS011;6597;52.218;9.882;2024-03-02T13:29:23;21.10;;;5.68;;
13061;SDS011;6597;52.218;9.882;2024-03-02T13:31:50;32.45;;;7.93;;
13061;SDS011;6597;52.218;9.882;2024-03-02T13:34:17;16.02;;;5.32;;
13061;SDS011;6597;52.218;9.882;2024-03-02T13:36:44;15.48;;;4.85;;
13061;SDS011;6597;52.218;9.882;2024-03-02T13:39:10;14.68;;;4.28;;
13061;SDS011;6597;52.218;9.882;2024-03-02T13:41:40;19.90;;;4.85;;
13061;SDS011;6597;52.218;9.882;2024-03-02T13:44:08;16.15;;;4.95;;
13061;SDS011;6597;52.218;9.882;2024-03-02T13:46:35;17.98;;;4.75;;
13061;SDS011;6597;52.218;9.882;2024-03-02T13:49:01;18.83;;;4.82;;
13061;SDS011;6597;52.218;9.882;2024-03-02T13:51:29;14.95;;;4.25;;
13061;SDS011;6597;52.218;9.882;2024-03-02T13:53:57;16.77;;;4.38;;
13061;SDS011;6597;52.218;9.882;2024-03-02T13:56:23;17.58;;;4.38;;
13061;SDS011;6597;52.218;9.882;2024-03-02T13:58:50;12.10;;;4.28;;
13061;SDS011;6597;52.218;9.882;2024-03-02T14:01:18;15.07;;;3.80;;
13061;SDS011;6597;52.218;9.882;2024-03-02T14:03:44;14.45;;;4.30;;
13061;SDS011;6597;52.218;9.882;2024-03-02T14:06:12;14.38;;;4.28;;
13061;SDS011;6597;52.218;9.882;2024-03-02T14:08:39;10.52;;;3.75;;
13061;SDS011;6597;52.218;9.882;2024-03-02T14:11:05;14.50;;;3.97;;
13061;SDS011;6597;52.218;9.882;2024-03-02T14:13:32;13.82;;;4.80;;
13061;SDS011;6597;52.218;9.882;2024-03-02T14:15:58;16.55;;;5.88;;
13061;SDS011;6597;52.218;9.882;2024-03-02T14:18:26;13.40;;;4.70;;
13061;SDS011;6597;52.218;9.882;2024-03-02T14:20:53;18.60;;;5.50;;
13061;SDS011;6597;52.218;9.882;2024-03-02T14:23:19;22.92;;;6.10;;
13061;SDS011;6597;52.218;9.882;2024-03-02T14:25:46;19.70;;;5.85;;
13061;SDS011;6597;52.218;9.882;2024-03-02T14:28:13;15.80;;;5.15;;
13061;SDS011;6597;52.218;9.882;2024-03-02T14:30:41;15.43;;;5.00;;
13061;SDS011;6597;52.218;9.882;2024-03-02T14:33:08;19.70;;;6.32;;
13061;SDS011;6597;52.218;9.882;2024-03-02T14:35:37;23.42;;;6.20;;
13061;SDS011;6597;52.218;9.882;2024-03-02T14:38:03;16.02;;;5.40;;
13061;SDS011;6597;52.218;9.882;2024-03-02T14:40:30;21.38;;;5.90;;
13061;SDS011;6597;52.218;9.882;2024-03-02T14:42:56;24.02;;;5.68;;
13061;SDS011;6597;52.218;9.882;2024-03-02T14:45:23;21.83;;;5.82;;